Hovedside
METAR-TAF:

METAR-TAF

Lufthavner :

Nouakchott internasjonale lufthavn

Nouakchott, Mauritania

breddegrad: 18-18-36N, lengdegrad: 015-58-11W, høyde over havet: 3 m

Gjeldene værobservasjon

Denne rapporten ble laget for 35 minutter siden, klokken 15:30 UTC
Vind 10 kt fra Nordøst, skiftende mellom Nord og Øst
Temperatur 32°C
Luftfuktighet 11%
Trykk 1012 hPa
Sikt: 8000 m

METAR: GQNO 201530Z 05010KT 010V100 8000 NSC 32/M02 Q1012 NOSIG

Tid: 16:05 (16:05 UTC)

Varsel

Denne rapporten ble laget for 5 timer og 5 minutter siden, klokken 11:00 UTC
Varsel gyldig fra 20. klokken 12 UTC til 21. klokken 18 UTC
Vind 10 kt fra Nordøst
Sikt: 8000 m
Midlertidig
fra 20. klokken 20 UTC til 20. klokken 24 UTC
Vind 8 kt fra Nord

TAF: GQNO 201100Z 2012/2118 05010KT 8000 NSC TEMPO 2020/2024 35008KT

Værobservasjoner og værvarsel for over 4000 flyplasser (METAR- og TAF-rapporter).

Tilgjengelige stasjoner er representert av de røde og gule prikkene på kartet.

Hold musepekeren over prikken for å se navnet på stasjonen.

Klikk så for å se værobservasjoner og -varsler.

For å forandre kartet kan du klikke på den grønne knappen med svart kryss for å zoome inn, på den grønne knappen med strek for å zoome ut, eller på de grønne pilene for å se tilstøtende kart.


METAR-TAF: